sensor_id;sensor_type;location;lat;lon;timestamp;temperature;humidity
41060;DHT22;26811;53.160;8.202;2023-09-18T00:00:56;18.10;99.90
41060;DHT22;26811;53.160;8.202;2023-09-18T00:05:58;18.00;99.90
41060;DHT22;26811;53.160;8.202;2023-09-18T00:10:59;18.00;99.90
41060;DHT22;26811;53.160;8.202;2023-09-18T00:16:00;18.00;99.90
41060;DHT22;26811;53.160;8.202;2023-09-18T00:21:01;17.90;99.90
41060;DHT22;26811;53.160;8.202;2023-09-18T00:26:03;17.90;99.90
41060;DHT22;26811;53.160;8.202;2023-09-18T00:31:03;17.80;99.90
41060;DHT22;26811;53.160;8.202;2023-09-18T00:36:04;17.80;99.90
41060;DHT22;26811;53.160;8.202;2023-09-18T00:41:04;17.80;99.90
41060;DHT22;26811;53.160;8.202;2023-09-18T00:46:06;17.80;99.90
41060;DHT22;26811;53.160;8.202;2023-09-18T00:51:08;17.80;99.90
41060;DHT22;26811;53.160;8.202;2023-09-18T00:56:10;17.80;99.90
41060;DHT22;26811;53.160;8.202;2023-09-18T01:01:11;17.80;99.90
41060;DHT22;26811;53.160;8.202;2023-09-18T01:06:12;17.80;99.90
41060;DHT22;26811;53.160;8.202;2023-09-18T01:11:36;17.80;99.90
41060;DHT22;26811;53.160;8.202;2023-09-18T01:16:59;17.90;99.90
41060;DHT22;26811;53.160;8.202;2023-09-18T01:22:02;18.00;99.90
41060;DHT22;26811;53.160;8.202;2023-09-18T01:27:03;18.10;99.90
41060;DHT22;26811;53.160;8.202;2023-09-18T01:32:07;18.00;99.90
41060;DHT22;26811;53.160;8.202;2023-09-18T01:37:09;18.10;99.90
41060;DHT22;26811;53.160;8.202;2023-09-18T01:42:10;18.10;99.90
41060;DHT22;26811;53.160;8.202;2023-09-18T01:47:14;18.10;99.90
41060;DHT22;26811;53.160;8.202;2023-09-18T01:52:16;18.10;99.90
41060;DHT22;26811;53.160;8.202;2023-09-18T01:57:16;18.10;99.90
41060;DHT22;26811;53.160;8.202;2023-09-18T02:02:17;18.00;99.90
41060;DHT22;26811;53.160;8.202;2023-09-18T02:07:17;18.10;99.90
41060;DHT22;26811;53.160;8.202;2023-09-18T02:12:18;18.10;99.90
41060;DHT22;26811;53.160;8.202;2023-09-18T02:17:19;18.00;99.90
41060;DHT22;26811;53.160;8.202;2023-09-18T02:22:20;18.00;99.90
41060;DHT22;26811;53.160;8.202;2023-09-18T02:27:21;18.00;99.90
41060;DHT22;26811;53.160;8.202;2023-09-18T02:32:21;18.00;99.90
41060;DHT22;26811;53.160;8.202;2023-09-18T02:37:22;18.00;99.90
41060;DHT22;26811;53.160;8.202;2023-09-18T02:42:24;18.00;99.90
41060;DHT22;26811;53.160;8.202;2023-09-18T02:47:24;17.90;99.90
41060;DHT22;26811;53.160;8.202;2023-09-18T02:52:25;17.90;99.90
41060;DHT22;26811;53.160;8.202;2023-09-18T02:57:26;17.90;99.90
41060;DHT22;26811;53.160;8.202;2023-09-18T03:02:26;17.90;99.90
41060;DHT22;26811;53.160;8.202;2023-09-18T03:07:27;17.90;99.90
41060;DHT22;26811;53.160;8.202;2023-09-18T03:12:29;17.90;99.90
41060;DHT22;26811;53.160;8.202;2023-09-18T03:17:30;17.80;99.90
41060;DHT22;26811;53.160;8.202;2023-09-18T03:22:30;17.80;99.90
41060;DHT22;26811;53.160;8.202;2023-09-18T03:27:31;17.80;99.90
41060;DHT22;26811;53.160;8.202;2023-09-18T03:32:32;17.80;99.90
41060;DHT22;26811;53.160;8.202;2023-09-18T03:37:32;17.90;99.90
41060;DHT22;26811;53.160;8.202;2023-09-18T03:42:33;17.80;99.90
41060;DHT22;26811;53.160;8.202;2023-09-18T03:47:38;17.80;99.90
41060;DHT22;26811;53.160;8.202;2023-09-18T03:52:41;17.90;99.90
41060;DHT22;26811;53.160;8.202;2023-09-18T03:57:42;17.90;99.90
41060;DHT22;26811;53.160;8.202;2023-09-18T04:02:42;17.90;99.90
41060;DHT22;26811;53.160;8.202;2023-09-18T04:07:43;17.90;99.90
41060;DHT22;26811;53.160;8.202;2023-09-18T04:12:46;17.90;99.90
41060;DHT22;26811;53.160;8.202;2023-09-18T04:17:47;17.90;99.90
41060;DHT22;26811;53.160;8.202;2023-09-18T04:23:26;17.90;99.90
41060;DHT22;26811;53.160;8.202;2023-09-18T04:28:27;17.80;99.90
41060;DHT22;26811;53.160;8.202;2023-09-18T04:33:27;17.80;99.90
41060;DHT22;26811;53.160;8.202;2023-09-18T04:38:29;17.90;99.90
41060;DHT22;26811;53.160;8.202;2023-09-18T04:43:29;17.80;99.90
41060;DHT22;26811;53.160;8.202;2023-09-18T04:48:31;17.90;99.90
41060;DHT22;26811;53.160;8.202;2023-09-18T04:53:32;17.90;99.90
41060;DHT22;26811;53.160;8.202;2023-09-18T04:58:32;17.90;99.90
41060;DHT22;26811;53.160;8.202;2023-09-18T05:03:34;17.90;99.90
41060;DHT22;26811;53.160;8.202;2023-09-18T05:08:35;17.80;99.90
41060;DHT22;26811;53.160;8.202;2023-09-18T05:13:35;17.90;99.90
41060;DHT22;26811;53.160;8.202;2023-09-18T05:18:36;17.80;99.90
41060;DHT22;26811;53.160;8.202;2023-09-18T05:23:38;17.80;99.90
41060;DHT22;26811;53.160;8.202;2023-09-18T05:28:38;17.80;99.90
41060;DHT22;26811;53.160;8.202;2023-09-18T05:33:39;17.80;99.90
41060;DHT22;26811;53.160;8.202;2023-09-18T05:38:39;17.80;99.90
41060;DHT22;26811;53.160;8.202;2023-09-18T05:43:40;17.90;99.90
41060;DHT22;26811;53.160;8.202;2023-09-18T05:48:40;17.90;99.90
41060;DHT22;26811;53.160;8.202;2023-09-18T05:53:42;18.00;99.90
41060;DHT22;26811;53.160;8.202;2023-09-18T05:58:43;18.00;99.90
41060;DHT22;26811;53.160;8.202;2023-09-18T06:03:43;18.10;99.90
41060;DHT22;26811;53.160;8.202;2023-09-18T06:08:44;18.20;99.90
41060;DHT22;26811;53.160;8.202;2023-09-18T06:13:45;18.20;99.90
41060;DHT22;26811;53.160;8.202;2023-09-18T06:18:45;18.40;99.90
41060;DHT22;26811;53.160;8.202;2023-09-18T06:23:46;18.40;99.90
41060;DHT22;26811;53.160;8.202;2023-09-18T06:28:47;18.50;99.90
41060;DHT22;26811;53.160;8.202;2023-09-18T06:33:55;18.50;99.90
41060;DHT22;26811;53.160;8.202;2023-09-18T06:38:56;18.60;99.90
41060;DHT22;26811;53.160;8.202;2023-09-18T06:43:56;18.70;99.90
41060;DHT22;26811;53.160;8.202;2023-09-18T06:48:57;18.80;99.90
41060;DHT22;26811;53.160;8.202;2023-09-18T06:54:00;18.90;99.90
41060;DHT22;26811;53.160;8.202;2023-09-18T06:59:03;19.00;99.90
41060;DHT22;26811;53.160;8.202;2023-09-18T07:04:03;19.10;99.90
41060;DHT22;26811;53.160;8.202;2023-09-18T07:09:05;19.20;99.90
41060;DHT22;26811;53.160;8.202;2023-09-18T07:14:07;19.30;99.90
41060;DHT22;26811;53.160;8.202;2023-09-18T07:19:08;19.50;99.90
41060;DHT22;26811;53.160;8.202;2023-09-18T07:24:11;19.50;99.90
41060;DHT22;26811;53.160;8.202;2023-09-18T07:29:16;19.70;99.90
41060;DHT22;26811;53.160;8.202;2023-09-18T07:34:17;19.80;99.90
41060;DHT22;26811;53.160;8.202;2023-09-18T07:39:18;19.90;99.90
41060;DHT22;26811;53.160;8.202;2023-09-18T07:44:21;19.90;99.90
41060;DHT22;26811;53.160;8.202;2023-09-18T07:49:22;20.00;99.90
41060;DHT22;26811;53.160;8.202;2023-09-18T07:54:22;19.90;99.90
41060;DHT22;26811;53.160;8.202;2023-09-18T07:59:23;19.90;99.90
41060;DHT22;26811;53.160;8.202;2023-09-18T08:04:25;20.00;99.90
41060;DHT22;26811;53.160;8.202;2023-09-18T08:09:26;20.00;99.90
41060;DHT22;26811;53.160;8.202;2023-09-18T08:14:29;20.00;99.90
41060;DHT22;26811;53.160;8.202;2023-09-18T08:19:30;20.10;99.90
41060;DHT22;26811;53.160;8.202;2023-09-18T08:24:33;20.10;99.90
41060;DHT22;26811;53.160;8.202;2023-09-18T08:29:33;20.10;99.90
41060;DHT22;26811;53.160;8.202;2023-09-18T08:34:34;20.00;99.90
41060;DHT22;26811;53.160;8.202;2023-09-18T08:39:34;19.80;99.90
41060;DHT22;26811;53.160;8.202;2023-09-18T08:44:38;19.60;99.90
41060;DHT22;26811;53.160;8.202;2023-09-18T08:49:39;19.50;99.90
41060;DHT22;26811;53.160;8.202;2023-09-18T08:54:40;19.40;99.90
41060;DHT22;26811;53.160;8.202;2023-09-18T08:59:41;19.30;99.90
41060;DHT22;26811;53.160;8.202;2023-09-18T09:04:42;19.40;99.90
41060;DHT22;26811;53.160;8.202;2023-09-18T09:09:42;19.50;99.90
41060;DHT22;26811;53.160;8.202;2023-09-18T09:15:02;19.50;99.90
41060;DHT22;26811;53.160;8.202;2023-09-18T09:20:11;19.80;99.90
41060;DHT22;26811;53.160;8.202;2023-09-18T09:30:24;20.20;99.90
41060;DHT22;26811;53.160;8.202;2023-09-18T09:35:27;20.30;99.90
41060;DHT22;26811;53.160;8.202;2023-09-18T09:40:29;20.40;99.90
41060;DHT22;26811;53.160;8.202;2023-09-18T09:45:31;20.40;99.90
41060;DHT22;26811;53.160;8.202;2023-09-18T09:50:44;20.40;99.90
41060;DHT22;26811;53.160;8.202;2023-09-18T09:55:54;20.40;99.90
41060;DHT22;26811;53.160;8.202;2023-09-18T10:00:56;20.60;99.90
41060;DHT22;26811;53.160;8.202;2023-09-18T10:06:00;20.80;99.90
41060;DHT22;26811;53.160;8.202;2023-09-18T10:11:07;20.90;99.90
41060;DHT22;26811;53.160;8.202;2023-09-18T10:16:13;21.10;99.90
41060;DHT22;26811;53.160;8.202;2023-09-18T10:26:23;21.20;99.90
41060;DHT22;26811;53.160;8.202;2023-09-18T10:31:33;21.20;99.90
41060;DHT22;26811;53.160;8.202;2023-09-18T10:36:35;21.20;99.90
41060;DHT22;26811;53.160;8.202;2023-09-18T10:41:37;21.20;99.90
41060;DHT22;26811;53.160;8.202;2023-09-18T10:46:38;21.20;99.90
41060;DHT22;26811;53.160;8.202;2023-09-18T10:51:39;21.40;99.90
41060;DHT22;26811;53.160;8.202;2023-09-18T10:56:42;21.50;99.90
41060;DHT22;26811;53.160;8.202;2023-09-18T11:01:44;21.80;99.90
41060;DHT22;26811;53.160;8.202;2023-09-18T11:12:03;22.00;99.90
41060;DHT22;26811;53.160;8.202;2023-09-18T11:17:04;22.00;99.90
41060;DHT22;26811;53.160;8.202;2023-09-18T11:22:07;21.90;99.90
41060;DHT22;26811;53.160;8.202;2023-09-18T11:27:08;21.90;99.90
41060;DHT22;26811;53.160;8.202;2023-09-18T11:32:10;21.90;99.90
41060;DHT22;26811;53.160;8.202;2023-09-18T11:37:22;22.10;99.90
41060;DHT22;26811;53.160;8.202;2023-09-18T11:42:23;22.10;99.90
41060;DHT22;26811;53.160;8.202;2023-09-18T11:47:27;22.20;99.90
41060;DHT22;26811;53.160;8.202;2023-09-18T11:52:30;22.20;99.90
41060;DHT22;26811;53.160;8.202;2023-09-18T11:57:35;22.30;99.90
41060;DHT22;26811;53.160;8.202;2023-09-18T12:02:36;22.40;99.90
41060;DHT22;26811;53.160;8.202;2023-09-18T12:07:39;22.50;99.90
41060;DHT22;26811;53.160;8.202;2023-09-18T12:12:41;22.90;99.90
41060;DHT22;26811;53.160;8.202;2023-09-18T12:17:42;23.30;99.90
41060;DHT22;26811;53.160;8.202;2023-09-18T12:22:50;23.50;99.90
41060;DHT22;26811;53.160;8.202;2023-09-18T12:27:52;23.50;99.90
41060;DHT22;26811;53.160;8.202;2023-09-18T12:32:57;23.50;99.90
41060;DHT22;26811;53.160;8.202;2023-09-18T12:38:00;23.60;99.90
41060;DHT22;26811;53.160;8.202;2023-09-18T12:43:01;23.60;99.90
41060;DHT22;26811;53.160;8.202;2023-09-18T12:48:03;23.60;99.90
41060;DHT22;26811;53.160;8.202;2023-09-18T12:53:11;23.70;99.90
41060;DHT22;26811;53.160;8.202;2023-09-18T12:58:12;23.80;99.90
41060;DHT22;26811;53.160;8.202;2023-09-18T13:03:14;24.00;99.90
41060;DHT22;26811;53.160;8.202;2023-09-18T13:08:14;24.10;99.90
41060;DHT22;26811;53.160;8.202;2023-09-18T13:13:19;24.10;99.90
41060;DHT22;26811;53.160;8.202;2023-09-18T13:18:20;24.30;99.90
41060;DHT22;26811;53.160;8.202;2023-09-18T13:23:27;24.30;99.90
41060;DHT22;26811;53.160;8.202;2023-09-18T13:28:29;24.30;99.90
41060;DHT22;26811;53.160;8.202;2023-09-18T13:33:31;24.20;99.90
41060;DHT22;26811;53.160;8.202;2023-09-18T13:38:35;24.10;99.90
41060;DHT22;26811;53.160;8.202;2023-09-18T13:43:35;24.10;99.90
41060;DHT22;26811;53.160;8.202;2023-09-18T13:48:36;24.30;99.90
41060;DHT22;26811;53.160;8.202;2023-09-18T13:53:39;24.30;99.90
41060;DHT22;26811;53.160;8.202;2023-09-18T13:58:41;24.20;99.90
41060;DHT22;26811;53.160;8.202;2023-09-18T14:03:41;24.00;99.90
41060;DHT22;26811;53.160;8.202;2023-09-18T14:08:45;24.00;99.90
41060;DHT22;26811;53.160;8.202;2023-09-18T14:13:45;24.10;99.90
41060;DHT22;26811;53.160;8.202;2023-09-18T14:18:48;24.20;99.90
41060;DHT22;26811;53.160;8.202;2023-09-18T14:23:48;24.00;99.90
41060;DHT22;26811;53.160;8.202;2023-09-18T14:28:49;23.70;99.90
41060;DHT22;26811;53.160;8.202;2023-09-18T14:33:49;23.50;99.90
41060;DHT22;26811;53.160;8.202;2023-09-18T14:38:50;23.50;99.90
41060;DHT22;26811;53.160;8.202;2023-09-18T14:43:51;23.30;99.90
41060;DHT22;26811;53.160;8.202;2023-09-18T14:48:52;23.20;99.90
41060;DHT22;26811;53.160;8.202;2023-09-18T14:53:52;23.20;99.90
41060;DHT22;26811;53.160;8.202;2023-09-18T14:58:54;23.20;99.90
41060;DHT22;26811;53.160;8.202;2023-09-18T15:03:58;23.20;99.90
41060;DHT22;26811;53.160;8.202;2023-09-18T15:08:59;23.20;99.90
41060;DHT22;26811;53.160;8.202;2023-09-18T15:14:18;23.20;99.90
41060;DHT22;26811;53.160;8.202;2023-09-18T15:19:18;23.20;99.90
41060;DHT22;26811;53.160;8.202;2023-09-18T15:24:20;23.00;99.90
41060;DHT22;26811;53.160;8.202;2023-09-18T15:29:20;22.80;99.90
41060;DHT22;26811;53.160;8.202;2023-09-18T15:34:21;22.60;99.90
41060;DHT22;26811;53.160;8.202;2023-09-18T15:39:24;22.40;99.90
41060;DHT22;26811;53.160;8.202;2023-09-18T15:44:25;22.30;99.90
41060;DHT22;26811;53.160;8.202;2023-09-18T15:49:26;22.30;99.90
41060;DHT22;26811;53.160;8.202;2023-09-18T15:54:27;22.20;99.90
41060;DHT22;26811;53.160;8.202;2023-09-18T15:59:27;21.90;99.90
41060;DHT22;26811;53.160;8.202;2023-09-18T16:04:29;21.60;99.90
41060;DHT22;26811;53.160;8.202;2023-09-18T16:09:30;21.40;99.90
41060;DHT22;26811;53.160;8.202;2023-09-18T16:14:31;21.10;99.90
41060;DHT22;26811;53.160;8.202;2023-09-18T16:19:31;21.00;99.90
41060;DHT22;26811;53.160;8.202;2023-09-18T16:24:32;20.90;99.90
41060;DHT22;26811;53.160;8.202;2023-09-18T16:29:33;20.90;99.90
41060;DHT22;26811;53.160;8.202;2023-09-18T16:34:34;20.80;99.90
41060;DHT22;26811;53.160;8.202;2023-09-18T16:39:34;20.70;99.90
41060;DHT22;26811;53.160;8.202;2023-09-18T16:44:35;20.70;99.90
41060;DHT22;26811;53.160;8.202;2023-09-18T16:49:41;20.60;99.90
41060;DHT22;26811;53.160;8.202;2023-09-18T16:54:42;20.50;99.90
41060;DHT22;26811;53.160;8.202;2023-09-18T16:59:43;20.40;99.90
41060;DHT22;26811;53.160;8.202;2023-09-18T17:04:44;20.40;99.90
41060;DHT22;26811;53.160;8.202;2023-09-18T17:09:44;20.30;99.90
41060;DHT22;26811;53.160;8.202;2023-09-18T17:14:45;20.20;99.90
41060;DHT22;26811;53.160;8.202;2023-09-18T17:19:45;20.00;99.90
41060;DHT22;26811;53.160;8.202;2023-09-18T17:24:46;19.90;99.90
41060;DHT22;26811;53.160;8.202;2023-09-18T17:29:47;19.80;99.90
41060;DHT22;26811;53.160;8.202;2023-09-18T17:34:48;19.70;99.90
41060;DHT22;26811;53.160;8.202;2023-09-18T17:39:50;19.60;99.90
41060;DHT22;26811;53.160;8.202;2023-09-18T17:44:50;19.50;99.90
41060;DHT22;26811;53.160;8.202;2023-09-18T17:49:51;19.40;99.90
41060;DHT22;26811;53.160;8.202;2023-09-18T17:54:52;19.40;99.90
41060;DHT22;26811;53.160;8.202;2023-09-18T17:59:55;19.40;99.90
41060;DHT22;26811;53.160;8.202;2023-09-18T18:04:58;19.40;99.90
41060;DHT22;26811;53.160;8.202;2023-09-18T18:09:59;19.30;99.90
41060;DHT22;26811;53.160;8.202;2023-09-18T18:15:00;19.40;99.90
41060;DHT22;26811;53.160;8.202;2023-09-18T18:20:00;19.40;99.90
41060;DHT22;26811;53.160;8.202;2023-09-18T18:25:06;19.50;99.90
41060;DHT22;26811;53.160;8.202;2023-09-18T18:30:14;19.30;99.90
41060;DHT22;26811;53.160;8.202;2023-09-18T18:35:16;18.50;99.90
41060;DHT22;26811;53.160;8.202;2023-09-18T18:40:21;17.80;99.90
41060;DHT22;26811;53.160;8.202;2023-09-18T18:45:23;17.40;99.90
41060;DHT22;26811;53.160;8.202;2023-09-18T18:50:27;17.00;99.90
41060;DHT22;26811;53.160;8.202;2023-09-18T18:55:28;16.80;99.90
41060;DHT22;26811;53.160;8.202;2023-09-18T19:00:29;16.70;99.90
41060;DHT22;26811;53.160;8.202;2023-09-18T19:05:30;16.50;99.90
41060;DHT22;26811;53.160;8.202;2023-09-18T19:10:30;16.50;99.90
41060;DHT22;26811;53.160;8.202;2023-09-18T19:15:31;16.40;99.90
41060;DHT22;26811;53.160;8.202;2023-09-18T19:20:32;16.40;99.90
41060;DHT22;26811;53.160;8.202;2023-09-18T19:25:32;16.30;99.90
41060;DHT22;26811;53.160;8.202;2023-09-18T19:30:33;16.30;99.90
41060;DHT22;26811;53.160;8.202;2023-09-18T19:35:43;16.20;99.90
41060;DHT22;26811;53.160;8.202;2023-09-18T19:40:46;16.10;99.90
41060;DHT22;26811;53.160;8.202;2023-09-18T19:45:47;16.10;99.90
41060;DHT22;26811;53.160;8.202;2023-09-18T19:50:47;16.00;99.90
41060;DHT22;26811;53.160;8.202;2023-09-18T19:55:49;16.00;99.90
41060;DHT22;26811;53.160;8.202;2023-09-18T20:00:52;15.90;99.90
41060;DHT22;26811;53.160;8.202;2023-09-18T20:05:53;15.90;99.90
41060;DHT22;26811;53.160;8.202;2023-09-18T20:10:53;15.90;99.90
41060;DHT22;26811;53.160;8.202;2023-09-18T20:15:54;15.90;99.90
41060;DHT22;26811;53.160;8.202;2023-09-18T20:20:57;15.90;99.90
41060;DHT22;26811;53.160;8.202;2023-09-18T20:26:01;15.90;99.90
41060;DHT22;26811;53.160;8.202;2023-09-18T20:31:02;15.90;99.90
41060;DHT22;26811;53.160;8.202;2023-09-18T20:36:03;16.00;99.90
41060;DHT22;26811;53.160;8.202;2023-09-18T20:41:03;16.00;99.90
41060;DHT22;26811;53.160;8.202;2023-09-18T20:46:04;16.00;99.90
41060;DHT22;26811;53.160;8.202;2023-09-18T20:51:06;16.00;99.90
41060;DHT22;26811;53.160;8.202;2023-09-18T20:56:06;16.00;99.90
41060;DHT22;26811;53.160;8.202;2023-09-18T21:01:07;16.10;99.90
41060;DHT22;26811;53.160;8.202;2023-09-18T21:06:08;16.20;99.90
41060;DHT22;26811;53.160;8.202;2023-09-18T21:11:09;16.20;99.90
41060;DHT22;26811;53.160;8.202;2023-09-18T21:16:10;16.20;99.90
41060;DHT22;26811;53.160;8.202;2023-09-18T21:21:11;16.30;99.90
41060;DHT22;26811;53.160;8.202;2023-09-18T21:26:12;16.30;99.90
41060;DHT22;26811;53.160;8.202;2023-09-18T21:31:13;16.30;99.90
41060;DHT22;26811;53.160;8.202;2023-09-18T21:36:18;16.30;99.90
41060;DHT22;26811;53.160;8.202;2023-09-18T21:41:22;16.30;99.90
41060;DHT22;26811;53.160;8.202;2023-09-18T21:46:23;16.30;99.90
41060;DHT22;26811;53.160;8.202;2023-09-18T21:51:23;16.30;99.90
41060;DHT22;26811;53.160;8.202;2023-09-18T21:56:24;16.30;99.90
41060;DHT22;26811;53.160;8.202;2023-09-18T22:01:24;16.30;99.90
41060;DHT22;26811;53.160;8.202;2023-09-18T22:06:25;16.30;99.90
41060;DHT22;26811;53.160;8.202;2023-09-18T22:11:26;16.40;99.90
41060;DHT22;26811;53.160;8.202;2023-09-18T22:16:27;16.50;99.90
41060;DHT22;26811;53.160;8.202;2023-09-18T22:21:27;16.50;99.90
41060;DHT22;26811;53.160;8.202;2023-09-18T22:26:28;16.50;99.90
41060;DHT22;26811;53.160;8.202;2023-09-18T22:31:28;16.60;99.90
41060;DHT22;26811;53.160;8.202;2023-09-18T22:36:32;16.70;99.90
41060;DHT22;26811;53.160;8.202;2023-09-18T22:57:47;16.90;99.90
41060;DHT22;26811;53.160;8.202;2023-09-18T23:02:48;17.00;99.90
41060;DHT22;26811;53.160;8.202;2023-09-18T23:08:01;17.00;99.90
41060;DHT22;26811;53.160;8.202;2023-09-18T23:13:07;17.00;99.90
41060;DHT22;26811;53.160;8.202;2023-09-18T23:18:10;16.90;99.90
41060;DHT22;26811;53.160;8.202;2023-09-18T23:23:11;16.80;99.90
41060;DHT22;26811;53.160;8.202;2023-09-18T23:28:11;16.60;99.90
41060;DHT22;26811;53.160;8.202;2023-09-18T23:33:12;16.50;99.90
41060;DHT22;26811;53.160;8.202;2023-09-18T23:38:14;16.40;99.90
41060;DHT22;26811;53.160;8.202;2023-09-18T23:43:17;16.30;99.90
41060;DHT22;26811;53.160;8.202;2023-09-18T23:48:19;16.20;99.90
41060;DHT22;26811;53.160;8.202;2023-09-18T23:53:21;16.10;99.90
41060;DHT22;26811;53.160;8.202;2023-09-18T23:58:24;16.10;99.90
